sensor_id;sensor_type;location;lat;lon;timestamp;temperature;humidity
11095;DHT22;5601;44.490;11.400;2022-07-05T00:00:26;22.60;99.90
11095;DHT22;5601;44.490;11.400;2022-07-05T00:02:53;22.60;99.90
11095;DHT22;5601;44.490;11.400;2022-07-05T00:05:22;22.50;99.90
11095;DHT22;5601;44.490;11.400;2022-07-05T00:07:49;22.50;99.90
11095;DHT22;5601;44.490;11.400;2022-07-05T00:10:17;22.50;99.90
11095;DHT22;5601;44.490;11.400;2022-07-05T00:12:44;22.50;99.90
11095;DHT22;5601;44.490;11.400;2022-07-05T00:15:12;22.50;99.90
11095;DHT22;5601;44.490;11.400;2022-07-05T00:17:39;22.50;99.90
11095;DHT22;5601;44.490;11.400;2022-07-05T00:20:09;22.50;99.90
11095;DHT22;5601;44.490;11.400;2022-07-05T00:22:38;22.50;99.90
11095;DHT22;5601;44.490;11.400;2022-07-05T00:25:06;22.50;99.90
11095;DHT22;5601;44.490;11.400;2022-07-05T00:27:33;22.60;99.90
11095;DHT22;5601;44.490;11.400;2022-07-05T00:30:00;22.60;99.90
11095;DHT22;5601;44.490;11.400;2022-07-05T00:32:28;22.60;99.90
11095;DHT22;5601;44.490;11.400;2022-07-05T00:34:55;22.70;99.90
11095;DHT22;5601;44.490;11.400;2022-07-05T00:37:23;22.80;99.90
11095;DHT22;5601;44.490;11.400;2022-07-05T00:39:52;22.80;99.90
11095;DHT22;5601;44.490;11.400;2022-07-05T00:42:19;22.80;99.90
11095;DHT22;5601;44.490;11.400;2022-07-05T00:44:47;22.90;99.90
11095;DHT22;5601;44.490;11.400;2022-07-05T00:47:14;23.10;99.90
11095;DHT22;5601;44.490;11.400;2022-07-05T00:49:42;23.20;99.90
11095;DHT22;5601;44.490;11.400;2022-07-05T00:52:10;23.20;99.90
11095;DHT22;5601;44.490;11.400;2022-07-05T00:54:38;23.30;99.90
11095;DHT22;5601;44.490;11.400;2022-07-05T00:57:07;23.40;99.90
11095;DHT22;5601;44.490;11.400;2022-07-05T00:59:35;23.40;99.90
11095;DHT22;5601;44.490;11.400;2022-07-05T01:02:03;23.40;99.90
11095;DHT22;5601;44.490;11.400;2022-07-05T01:04:30;23.40;99.90
11095;DHT22;5601;44.490;11.400;2022-07-05T01:06:58;23.30;99.90
11095;DHT22;5601;44.490;11.400;2022-07-05T01:09:29;23.30;99.90
11095;DHT22;5601;44.490;11.400;2022-07-05T01:11:56;23.20;99.90
11095;DHT22;5601;44.490;11.400;2022-07-05T01:14:25;23.20;99.90
11095;DHT22;5601;44.490;11.400;2022-07-05T01:16:53;23.10;99.90
11095;DHT22;5601;44.490;11.400;2022-07-05T01:19:21;23.00;99.90
11095;DHT22;5601;44.490;11.400;2022-07-05T01:21:49;22.90;99.90
11095;DHT22;5601;44.490;11.400;2022-07-05T01:24:19;22.80;99.90
11095;DHT22;5601;44.490;11.400;2022-07-05T01:26:48;22.70;99.90
11095;DHT22;5601;44.490;11.400;2022-07-05T01:29:20;22.60;99.90
11095;DHT22;5601;44.490;11.400;2022-07-05T01:31:47;22.50;99.90
11095;DHT22;5601;44.490;11.400;2022-07-05T01:34:14;22.50;99.90
11095;DHT22;5601;44.490;11.400;2022-07-05T01:36:42;22.50;99.90
11095;DHT22;5601;44.490;11.400;2022-07-05T01:39:09;22.40;99.90
11095;DHT22;5601;44.490;11.400;2022-07-05T01:41:38;22.30;99.90
11095;DHT22;5601;44.490;11.400;2022-07-05T01:44:06;22.30;99.90
11095;DHT22;5601;44.490;11.400;2022-07-05T01:46:33;22.30;99.90
11095;DHT22;5601;44.490;11.400;2022-07-05T01:49:05;22.30;99.90
11095;DHT22;5601;44.490;11.400;2022-07-05T01:51:36;22.30;99.90
11095;DHT22;5601;44.490;11.400;2022-07-05T01:54:05;22.40;99.90
11095;DHT22;5601;44.490;11.400;2022-07-05T01:56:33;22.40;99.90
11095;DHT22;5601;44.490;11.400;2022-07-05T01:59:01;22.50;99.90
11095;DHT22;5601;44.490;11.400;2022-07-05T02:01:33;22.50;99.90
11095;DHT22;5601;44.490;11.400;2022-07-05T02:04:01;22.60;99.90
11095;DHT22;5601;44.490;11.400;2022-07-05T02:06:30;22.60;99.90
11095;DHT22;5601;44.490;11.400;2022-07-05T02:08:58;22.60;99.90
11095;DHT22;5601;44.490;11.400;2022-07-05T02:11:25;22.60;99.90
11095;DHT22;5601;44.490;11.400;2022-07-05T02:13:52;22.60;99.90
11095;DHT22;5601;44.490;11.400;2022-07-05T02:16:23;22.70;99.90
11095;DHT22;5601;44.490;11.400;2022-07-05T02:18:51;22.70;99.90
11095;DHT22;5601;44.490;11.400;2022-07-05T02:21:18;22.70;99.90
11095;DHT22;5601;44.490;11.400;2022-07-05T02:23:46;22.70;99.90
11095;DHT22;5601;44.490;11.400;2022-07-05T02:26:13;22.80;99.90
11095;DHT22;5601;44.490;11.400;2022-07-05T02:28:41;22.80;99.90
11095;DHT22;5601;44.490;11.400;2022-07-05T02:31:09;22.80;99.90
11095;DHT22;5601;44.490;11.400;2022-07-05T02:33:38;22.80;99.90
11095;DHT22;5601;44.490;11.400;2022-07-05T02:36:07;22.80;99.90
11095;DHT22;5601;44.490;11.400;2022-07-05T02:38:36;22.70;99.90
11095;DHT22;5601;44.490;11.400;2022-07-05T02:41:07;22.70;99.90
11095;DHT22;5601;44.490;11.400;2022-07-05T02:43:36;22.70;99.90
11095;DHT22;5601;44.490;11.400;2022-07-05T02:46:04;22.70;99.90
11095;DHT22;5601;44.490;11.400;2022-07-05T02:48:32;22.70;99.90
11095;DHT22;5601;44.490;11.400;2022-07-05T02:51:01;22.70;99.90
11095;DHT22;5601;44.490;11.400;2022-07-05T02:53:29;22.70;99.90
11095;DHT22;5601;44.490;11.400;2022-07-05T02:55:57;22.80;99.90
11095;DHT22;5601;44.490;11.400;2022-07-05T02:58:25;22.80;99.90
11095;DHT22;5601;44.490;11.400;2022-07-05T03:00:52;22.90;99.90
11095;DHT22;5601;44.490;11.400;2022-07-05T03:03:19;22.90;99.90
11095;DHT22;5601;44.490;11.400;2022-07-05T03:05:47;22.90;99.90
11095;DHT22;5601;44.490;11.400;2022-07-05T03:08:16;22.90;99.90
11095;DHT22;5601;44.490;11.400;2022-07-05T03:10:43;23.00;99.90
11095;DHT22;5601;44.490;11.400;2022-07-05T03:13:11;23.00;99.90
11095;DHT22;5601;44.490;11.400;2022-07-05T03:15:39;23.00;99.90
11095;DHT22;5601;44.490;11.400;2022-07-05T03:18:06;23.00;99.90
11095;DHT22;5601;44.490;11.400;2022-07-05T03:20:34;23.10;99.90
11095;DHT22;5601;44.490;11.400;2022-07-05T03:23:01;23.10;99.90
11095;DHT22;5601;44.490;11.400;2022-07-05T03:25:30;23.10;99.90
11095;DHT22;5601;44.490;11.400;2022-07-05T03:27:57;23.20;99.90
11095;DHT22;5601;44.490;11.400;2022-07-05T03:30:24;23.20;99.90
11095;DHT22;5601;44.490;11.400;2022-07-05T03:32:52;23.20;99.90
11095;DHT22;5601;44.490;11.400;2022-07-05T03:35:19;23.20;99.90
11095;DHT22;5601;44.490;11.400;2022-07-05T03:37:47;23.20;99.90
11095;DHT22;5601;44.490;11.400;2022-07-05T03:40:14;23.20;99.90
11095;DHT22;5601;44.490;11.400;2022-07-05T03:42:43;23.30;99.90
11095;DHT22;5601;44.490;11.400;2022-07-05T03:45:10;23.30;99.90
11095;DHT22;5601;44.490;11.400;2022-07-05T03:47:39;23.20;99.90
11095;DHT22;5601;44.490;11.400;2022-07-05T03:50:07;23.20;99.90
11095;DHT22;5601;44.490;11.400;2022-07-05T03:52:34;23.20;99.90
11095;DHT22;5601;44.490;11.400;2022-07-05T03:55:02;23.20;99.90
11095;DHT22;5601;44.490;11.400;2022-07-05T03:57:29;23.20;99.90
11095;DHT22;5601;44.490;11.400;2022-07-05T03:59:58;23.20;99.90
11095;DHT22;5601;44.490;11.400;2022-07-05T04:02:26;23.20;99.90
11095;DHT22;5601;44.490;11.400;2022-07-05T04:04:53;23.20;99.90
11095;DHT22;5601;44.490;11.400;2022-07-05T04:07:20;23.20;99.90
11095;DHT22;5601;44.490;11.400;2022-07-05T04:09:48;23.20;99.90
11095;DHT22;5601;44.490;11.400;2022-07-05T04:12:15;23.20;99.90
11095;DHT22;5601;44.490;11.400;2022-07-05T04:14:43;23.20;99.90
11095;DHT22;5601;44.490;11.400;2022-07-05T04:17:11;23.20;99.90
11095;DHT22;5601;44.490;11.400;2022-07-05T04:19:39;23.20;99.90
11095;DHT22;5601;44.490;11.400;2022-07-05T04:22:07;23.20;99.90
11095;DHT22;5601;44.490;11.400;2022-07-05T04:24:34;23.20;99.90
11095;DHT22;5601;44.490;11.400;2022-07-05T04:27:21;23.40;99.90
11095;DHT22;5601;44.490;11.400;2022-07-05T04:29:49;23.50;99.90
11095;DHT22;5601;44.490;11.400;2022-07-05T04:32:18;23.50;99.90
11095;DHT22;5601;44.490;11.400;2022-07-05T04:34:45;23.50;99.90
11095;DHT22;5601;44.490;11.400;2022-07-05T04:37:13;23.60;99.90
11095;DHT22;5601;44.490;11.400;2022-07-05T04:39:40;23.60;99.90
11095;DHT22;5601;44.490;11.400;2022-07-05T04:42:08;23.70;99.90
11095;DHT22;5601;44.490;11.400;2022-07-05T04:44:35;23.90;99.90
11095;DHT22;5601;44.490;11.400;2022-07-05T04:47:04;23.80;99.90
11095;DHT22;5601;44.490;11.400;2022-07-05T04:49:32;23.90;99.90
11095;DHT22;5601;44.490;11.400;2022-07-05T04:52:00;24.00;99.90
11095;DHT22;5601;44.490;11.400;2022-07-05T04:54:27;24.00;99.90
11095;DHT22;5601;44.490;11.400;2022-07-05T04:56:55;23.90;99.90
11095;DHT22;5601;44.490;11.400;2022-07-05T04:59:22;23.90;99.90
11095;DHT22;5601;44.490;11.400;2022-07-05T05:01:49;24.00;99.90
11095;DHT22;5601;44.490;11.400;2022-07-05T05:04:16;24.00;99.90
11095;DHT22;5601;44.490;11.400;2022-07-05T05:06:46;24.10;99.90
11095;DHT22;5601;44.490;11.400;2022-07-05T05:09:13;24.10;99.90
11095;DHT22;5601;44.490;11.400;2022-07-05T05:11:40;24.00;99.90
11095;DHT22;5601;44.490;11.400;2022-07-05T05:14:07;24.10;99.90
11095;DHT22;5601;44.490;11.400;2022-07-05T05:16:34;24.10;99.90
11095;DHT22;5601;44.490;11.400;2022-07-05T05:19:02;24.20;99.90
11095;DHT22;5601;44.490;11.400;2022-07-05T05:21:29;24.30;99.90
11095;DHT22;5601;44.490;11.400;2022-07-05T05:23:58;24.40;99.90
11095;DHT22;5601;44.490;11.400;2022-07-05T05:26:26;24.30;99.90
11095;DHT22;5601;44.490;11.400;2022-07-05T05:28:54;24.40;99.90
11095;DHT22;5601;44.490;11.400;2022-07-05T05:31:21;24.50;99.90
11095;DHT22;5601;44.490;11.400;2022-07-05T05:33:49;24.60;99.90
11095;DHT22;5601;44.490;11.400;2022-07-05T05:36:16;24.70;99.90
11095;DHT22;5601;44.490;11.400;2022-07-05T05:38:43;24.80;99.90
11095;DHT22;5601;44.490;11.400;2022-07-05T05:41:12;24.90;99.90
11095;DHT22;5601;44.490;11.400;2022-07-05T05:43:40;25.20;99.90
11095;DHT22;5601;44.490;11.400;2022-07-05T05:46:07;25.40;99.90
11095;DHT22;5601;44.490;11.400;2022-07-05T05:48:34;25.40;99.90
11095;DHT22;5601;44.490;11.400;2022-07-05T05:51:01;25.40;99.90
11095;DHT22;5601;44.490;11.400;2022-07-05T05:53:29;25.40;99.90
11095;DHT22;5601;44.490;11.400;2022-07-05T05:55:56;25.40;99.90
11095;DHT22;5601;44.490;11.400;2022-07-05T05:58:25;25.40;99.90
11095;DHT22;5601;44.490;11.400;2022-07-05T06:00:53;25.70;99.90
11095;DHT22;5601;44.490;11.400;2022-07-05T06:03:21;25.80;99.90
11095;DHT22;5601;44.490;11.400;2022-07-05T06:05:49;26.40;99.90
11095;DHT22;5601;44.490;11.400;2022-07-05T06:08:17;26.80;99.90
11095;DHT22;5601;44.490;11.400;2022-07-05T06:10:44;27.00;99.90
11095;DHT22;5601;44.490;11.400;2022-07-05T06:13:13;27.20;99.90
11095;DHT22;5601;44.490;11.400;2022-07-05T06:15:43;27.30;99.90
11095;DHT22;5601;44.490;11.400;2022-07-05T06:18:10;27.60;99.90
11095;DHT22;5601;44.490;11.400;2022-07-05T08:21:12;29.20;99.90
11095;DHT22;5601;44.490;11.400;2022-07-05T08:23:58;29.10;99.90
11095;DHT22;5601;44.490;11.400;2022-07-05T08:26:26;29.30;99.90
11095;DHT22;5601;44.490;11.400;2022-07-05T08:28:54;29.40;99.90
11095;DHT22;5601;44.490;11.400;2022-07-05T08:31:24;29.50;99.90
11095;DHT22;5601;44.490;11.400;2022-07-05T08:33:51;29.60;99.90
11095;DHT22;5601;44.490;11.400;2022-07-05T08:36:20;29.80;99.90
11095;DHT22;5601;44.490;11.400;2022-07-05T08:38:47;29.90;99.90
11095;DHT22;5601;44.490;11.400;2022-07-05T08:41:18;29.80;99.90
11095;DHT22;5601;44.490;11.400;2022-07-05T08:43:47;29.90;99.90
11095;DHT22;5601;44.490;11.400;2022-07-05T08:46:15;29.80;99.90
11095;DHT22;5601;44.490;11.400;2022-07-05T08:48:44;29.60;99.90
11095;DHT22;5601;44.490;11.400;2022-07-05T08:51:14;29.60;99.90
11095;DHT22;5601;44.490;11.400;2022-07-05T08:53:45;29.70;99.90
11095;DHT22;5601;44.490;11.400;2022-07-05T08:56:13;29.80;99.90
11095;DHT22;5601;44.490;11.400;2022-07-05T08:58:41;29.70;99.90
11095;DHT22;5601;44.490;11.400;2022-07-05T09:01:09;29.60;99.90
11095;DHT22;5601;44.490;11.400;2022-07-05T09:03:38;29.50;99.90
11095;DHT22;5601;44.490;11.400;2022-07-05T09:06:08;29.70;99.90
11095;DHT22;5601;44.490;11.400;2022-07-05T09:08:37;30.00;99.90
11095;DHT22;5601;44.490;11.400;2022-07-05T09:11:09;30.00;99.90
11095;DHT22;5601;44.490;11.400;2022-07-05T09:13:40;30.00;99.90
11095;DHT22;5601;44.490;11.400;2022-07-05T09:16:08;30.00;99.90
11095;DHT22;5601;44.490;11.400;2022-07-05T09:21:15;30.10;99.90
11095;DHT22;5601;44.490;11.400;2022-07-05T09:23:43;30.40;99.90
11095;DHT22;5601;44.490;11.400;2022-07-05T09:26:12;30.60;99.90
11095;DHT22;5601;44.490;11.400;2022-07-05T09:28:54;30.90;99.90
11095;DHT22;5601;44.490;11.400;2022-07-05T09:31:29;30.80;99.90
11095;DHT22;5601;44.490;11.400;2022-07-05T09:34:07;30.80;99.90
11095;DHT22;5601;44.490;11.400;2022-07-05T09:36:48;30.80;99.90
11095;DHT22;5601;44.490;11.400;2022-07-05T09:39:16;30.60;99.90
11095;DHT22;5601;44.490;11.400;2022-07-05T09:41:45;30.70;99.90
11095;DHT22;5601;44.490;11.400;2022-07-05T09:44:24;30.80;99.90
11095;DHT22;5601;44.490;11.400;2022-07-05T09:47:07;30.90;99.90
11095;DHT22;5601;44.490;11.400;2022-07-05T09:49:36;30.90;99.90
11095;DHT22;5601;44.490;11.400;2022-07-05T09:52:05;31.00;99.90
11095;DHT22;5601;44.490;11.400;2022-07-05T09:54:33;31.00;99.90
11095;DHT22;5601;44.490;11.400;2022-07-05T09:57:02;30.90;99.90
11095;DHT22;5601;44.490;11.400;2022-07-05T09:59:29;31.00;99.90
11095;DHT22;5601;44.490;11.400;2022-07-05T10:01:57;31.00;99.90
11095;DHT22;5601;44.490;11.400;2022-07-05T10:04:24;31.00;99.90
11095;DHT22;5601;44.490;11.400;2022-07-05T10:06:52;30.90;99.90
11095;DHT22;5601;44.490;11.400;2022-07-05T10:09:20;30.90;99.90
11095;DHT22;5601;44.490;11.400;2022-07-05T10:11:49;30.90;99.90
11095;DHT22;5601;44.490;11.400;2022-07-05T10:14:20;30.90;99.90
11095;DHT22;5601;44.490;11.400;2022-07-05T10:16:56;31.10;99.90
11095;DHT22;5601;44.490;11.400;2022-07-05T10:19:28;31.20;99.90
11095;DHT22;5601;44.490;11.400;2022-07-05T10:21:59;31.40;99.90
11095;DHT22;5601;44.490;11.400;2022-07-05T10:24:33;31.30;99.90
11095;DHT22;5601;44.490;11.400;2022-07-05T10:27:01;31.30;99.90
11095;DHT22;5601;44.490;11.400;2022-07-05T10:29:32;31.30;99.90
11095;DHT22;5601;44.490;11.400;2022-07-05T10:32:01;31.40;99.90
11095;DHT22;5601;44.490;11.400;2022-07-05T10:34:32;31.60;99.90
11095;DHT22;5601;44.490;11.400;2022-07-05T10:37:00;31.50;99.90
11095;DHT22;5601;44.490;11.400;2022-07-05T10:39:28;31.40;99.90
11095;DHT22;5601;44.490;11.400;2022-07-05T10:44:32;31.70;99.90
11095;DHT22;5601;44.490;11.400;2022-07-05T10:47:11;31.80;99.90
11095;DHT22;5601;44.490;11.400;2022-07-05T10:49:39;31.80;99.90
11095;DHT22;5601;44.490;11.400;2022-07-05T10:52:21;31.80;99.90
11095;DHT22;5601;44.490;11.400;2022-07-05T10:55:17;31.80;99.90
11095;DHT22;5601;44.490;11.400;2022-07-05T11:04:34;31.60;99.90
11095;DHT22;5601;44.490;11.400;2022-07-05T11:07:02;31.60;99.90
11095;DHT22;5601;44.490;11.400;2022-07-05T11:09:30;31.50;99.90
11095;DHT22;5601;44.490;11.400;2022-07-05T11:12:14;31.60;99.90
11095;DHT22;5601;44.490;11.400;2022-07-05T11:14:46;31.60;99.90
11095;DHT22;5601;44.490;11.400;2022-07-05T11:17:19;31.80;99.90
11095;DHT22;5601;44.490;11.400;2022-07-05T11:20:16;32.00;99.90
11095;DHT22;5601;44.490;11.400;2022-07-05T11:23:05;32.10;99.90
11095;DHT22;5601;44.490;11.400;2022-07-05T11:25:34;32.30;99.90
11095;DHT22;5601;44.490;11.400;2022-07-05T11:30:57;32.20;99.90
11095;DHT22;5601;44.490;11.400;2022-07-05T11:33:33;32.10;99.90
11095;DHT22;5601;44.490;11.400;2022-07-05T11:36:03;32.00;99.90
11095;DHT22;5601;44.490;11.400;2022-07-05T11:38:33;32.00;99.90
11095;DHT22;5601;44.490;11.400;2022-07-05T11:41:14;32.20;99.90
11095;DHT22;5601;44.490;11.400;2022-07-05T11:43:41;32.30;99.70
11095;DHT22;5601;44.490;11.400;2022-07-05T11:46:09;32.50;99.70
11095;DHT22;5601;44.490;11.400;2022-07-05T11:48:37;32.30;99.50
11095;DHT22;5601;44.490;11.400;2022-07-05T11:51:15;32.30;99.90
11095;DHT22;5601;44.490;11.400;2022-07-05T11:53:42;32.30;99.90
11095;DHT22;5601;44.490;11.400;2022-07-05T11:56:12;32.20;99.90
11095;DHT22;5601;44.490;11.400;2022-07-05T11:58:40;32.40;99.90
11095;DHT22;5601;44.490;11.400;2022-07-05T12:01:08;32.40;99.90
11095;DHT22;5601;44.490;11.400;2022-07-05T12:03:36;32.40;99.90
11095;DHT22;5601;44.490;11.400;2022-07-05T12:06:11;32.50;99.90
11095;DHT22;5601;44.490;11.400;2022-07-05T12:08:40;32.70;99.90
11095;DHT22;5601;44.490;11.400;2022-07-05T12:11:10;32.70;99.90
11095;DHT22;5601;44.490;11.400;2022-07-05T12:13:54;32.90;99.40
11095;DHT22;5601;44.490;11.400;2022-07-05T12:16:21;32.90;97.50
11095;DHT22;5601;44.490;11.400;2022-07-05T12:18:52;32.90;98.00
11095;DHT22;5601;44.490;11.400;2022-07-05T12:21:22;32.90;98.40
11095;DHT22;5601;44.490;11.400;2022-07-05T12:23:51;33.00;98.70
11095;DHT22;5601;44.490;11.400;2022-07-05T12:26:19;32.90;99.00
11095;DHT22;5601;44.490;11.400;2022-07-05T12:28:47;33.00;99.10
11095;DHT22;5601;44.490;11.400;2022-07-05T12:31:19;33.00;98.90
11095;DHT22;5601;44.490;11.400;2022-07-05T12:33:48;32.90;98.90
11095;DHT22;5601;44.490;11.400;2022-07-05T12:36:16;33.00;98.30
11095;DHT22;5601;44.490;11.400;2022-07-05T12:38:45;33.00;98.20
11095;DHT22;5601;44.490;11.400;2022-07-05T12:41:21;32.90;98.50
11095;DHT22;5601;44.490;11.400;2022-07-05T12:43:50;33.00;98.40
11095;DHT22;5601;44.490;11.400;2022-07-05T12:46:17;33.20;98.30
11095;DHT22;5601;44.490;11.400;2022-07-05T12:48:51;33.40;98.50
11095;DHT22;5601;44.490;11.400;2022-07-05T12:51:32;33.40;97.20
11095;DHT22;5601;44.490;11.400;2022-07-05T12:54:00;33.40;97.70
11095;DHT22;5601;44.490;11.400;2022-07-05T12:56:50;33.40;97.00
11095;DHT22;5601;44.490;11.400;2022-07-05T12:59:35;33.40;96.30
11095;DHT22;5601;44.490;11.400;2022-07-05T13:02:03;33.40;96.10
11095;DHT22;5601;44.490;11.400;2022-07-05T13:04:31;33.60;96.40
11095;DHT22;5601;44.490;11.400;2022-07-05T13:07:00;33.70;96.20
11095;DHT22;5601;44.490;11.400;2022-07-05T13:09:32;33.80;95.70
11095;DHT22;5601;44.490;11.400;2022-07-05T13:12:12;33.70;95.70
11095;DHT22;5601;44.490;11.400;2022-07-05T13:14:41;33.80;95.90
11095;DHT22;5601;44.490;11.400;2022-07-05T13:17:10;33.80;95.30
11095;DHT22;5601;44.490;11.400;2022-07-05T13:19:39;33.80;95.50
11095;DHT22;5601;44.490;11.400;2022-07-05T13:22:07;33.90;95.10
11095;DHT22;5601;44.490;11.400;2022-07-05T13:24:34;33.80;94.90
11095;DHT22;5601;44.490;11.400;2022-07-05T13:27:02;33.80;94.50
11095;DHT22;5601;44.490;11.400;2022-07-05T13:29:31;33.70;94.30
11095;DHT22;5601;44.490;11.400;2022-07-05T13:31:59;33.80;94.50
11095;DHT22;5601;44.490;11.400;2022-07-05T13:34:26;33.60;94.50
11095;DHT22;5601;44.490;11.400;2022-07-05T13:36:55;33.60;94.80
11095;DHT22;5601;44.490;11.400;2022-07-05T13:39:22;33.80;95.20
11095;DHT22;5601;44.490;11.400;2022-07-05T13:41:52;33.90;94.20
11095;DHT22;5601;44.490;11.400;2022-07-05T13:44:19;33.90;94.80
11095;DHT22;5601;44.490;11.400;2022-07-05T13:46:49;33.90;94.40
11095;DHT22;5601;44.490;11.400;2022-07-05T13:49:16;33.90;93.90
11095;DHT22;5601;44.490;11.400;2022-07-05T13:51:44;33.90;93.90
11095;DHT22;5601;44.490;11.400;2022-07-05T13:54:11;33.80;93.90
11095;DHT22;5601;44.490;11.400;2022-07-05T13:56:38;33.90;93.90
11095;DHT22;5601;44.490;11.400;2022-07-05T13:59:06;34.00;93.70
11095;DHT22;5601;44.490;11.400;2022-07-05T14:01:33;34.00;93.60
11095;DHT22;5601;44.490;11.400;2022-07-05T14:04:02;33.90;93.20
11095;DHT22;5601;44.490;11.400;2022-07-05T14:06:31;34.00;92.60
11095;DHT22;5601;44.490;11.400;2022-07-05T14:09:00;34.00;92.10
11095;DHT22;5601;44.490;11.400;2022-07-05T14:11:28;34.00;90.10
11095;DHT22;5601;44.490;11.400;2022-07-05T14:13:56;34.10;91.50
11095;DHT22;5601;44.490;11.400;2022-07-05T14:16:24;34.10;91.80
11095;DHT22;5601;44.490;11.400;2022-07-05T14:18:53;34.20;92.40
11095;DHT22;5601;44.490;11.400;2022-07-05T14:21:23;34.20;92.20
11095;DHT22;5601;44.490;11.400;2022-07-05T14:23:51;34.20;92.70
11095;DHT22;5601;44.490;11.400;2022-07-05T14:26:18;34.30;92.30
11095;DHT22;5601;44.490;11.400;2022-07-05T14:28:46;34.20;92.20
11095;DHT22;5601;44.490;11.400;2022-07-05T14:31:13;34.20;92.40
11095;DHT22;5601;44.490;11.400;2022-07-05T14:33:40;34.40;92.60
11095;DHT22;5601;44.490;11.400;2022-07-05T14:36:08;34.40;91.80
11095;DHT22;5601;44.490;11.400;2022-07-05T14:38:37;34.30;92.00
11095;DHT22;5601;44.490;11.400;2022-07-05T14:41:04;34.30;92.00
11095;DHT22;5601;44.490;11.400;2022-07-05T14:43:31;34.40;92.00
11095;DHT22;5601;44.490;11.400;2022-07-05T14:45:59;34.50;92.30
11095;DHT22;5601;44.490;11.400;2022-07-05T14:48:28;34.50;91.70
11095;DHT22;5601;44.490;11.400;2022-07-05T14:50:56;34.40;91.60
11095;DHT22;5601;44.490;11.400;2022-07-05T14:53:23;34.40;91.20
11095;DHT22;5601;44.490;11.400;2022-07-05T14:55:52;34.40;92.00
11095;DHT22;5601;44.490;11.400;2022-07-05T14:58:21;34.20;92.10
11095;DHT22;5601;44.490;11.400;2022-07-05T15:00:48;34.20;92.30
11095;DHT22;5601;44.490;11.400;2022-07-05T15:03:15;34.20;91.90
11095;DHT22;5601;44.490;11.400;2022-07-05T15:05:43;34.20;92.20
11095;DHT22;5601;44.490;11.400;2022-07-05T15:08:10;34.20;92.50
11095;DHT22;5601;44.490;11.400;2022-07-05T15:10:38;34.20;92.10
11095;DHT22;5601;44.490;11.400;2022-07-05T15:13:06;34.20;92.50
11095;DHT22;5601;44.490;11.400;2022-07-05T15:15:34;34.30;93.10
11095;DHT22;5601;44.490;11.400;2022-07-05T15:18:02;34.40;92.50
11095;DHT22;5601;44.490;11.400;2022-07-05T15:20:29;34.50;92.20
11095;DHT22;5601;44.490;11.400;2022-07-05T15:22:57;34.40;92.20
11095;DHT22;5601;44.490;11.400;2022-07-05T15:25:24;34.30;92.20
11095;DHT22;5601;44.490;11.400;2022-07-05T15:27:52;34.20;92.30
11095;DHT22;5601;44.490;11.400;2022-07-05T15:30:21;34.20;92.20
11095;DHT22;5601;44.490;11.400;2022-07-05T15:32:48;34.20;92.40
11095;DHT22;5601;44.490;11.400;2022-07-05T15:35:16;34.30;92.30
11095;DHT22;5601;44.490;11.400;2022-07-05T15:37:43;34.30;92.50
11095;DHT22;5601;44.490;11.400;2022-07-05T15:40:11;34.40;92.40
11095;DHT22;5601;44.490;11.400;2022-07-05T15:42:39;34.40;92.50
11095;DHT22;5601;44.490;11.400;2022-07-05T15:45:07;34.50;92.30
11095;DHT22;5601;44.490;11.400;2022-07-05T15:47:36;34.50;92.00
11095;DHT22;5601;44.490;11.400;2022-07-05T15:50:06;34.40;92.00
11095;DHT22;5601;44.490;11.400;2022-07-05T15:52:35;34.30;92.00
11095;DHT22;5601;44.490;11.400;2022-07-05T15:55:02;34.30;92.30
11095;DHT22;5601;44.490;11.400;2022-07-05T15:57:30;34.40;92.30
11095;DHT22;5601;44.490;11.400;2022-07-05T15:59:58;34.40;92.10
11095;DHT22;5601;44.490;11.400;2022-07-05T16:02:25;34.40;91.80
11095;DHT22;5601;44.490;11.400;2022-07-05T16:04:54;34.40;91.70
11095;DHT22;5601;44.490;11.400;2022-07-05T16:07:21;34.40;92.00
11095;DHT22;5601;44.490;11.400;2022-07-05T16:09:49;34.40;91.90
11095;DHT22;5601;44.490;11.400;2022-07-05T16:12:18;34.20;92.30
11095;DHT22;5601;44.490;11.400;2022-07-05T16:14:46;34.30;92.40
11095;DHT22;5601;44.490;11.400;2022-07-05T16:17:13;34.30;92.50
11095;DHT22;5601;44.490;11.400;2022-07-05T16:19:41;34.20;92.10
11095;DHT22;5601;44.490;11.400;2022-07-05T16:22:10;34.20;91.90
11095;DHT22;5601;44.490;11.400;2022-07-05T16:24:39;34.30;92.20
11095;DHT22;5601;44.490;11.400;2022-07-05T16:27:07;34.30;91.90
11095;DHT22;5601;44.490;11.400;2022-07-05T16:29:36;34.20;92.10
11095;DHT22;5601;44.490;11.400;2022-07-05T16:32:05;34.30;92.10
11095;DHT22;5601;44.490;11.400;2022-07-05T16:34:33;34.20;92.10
11095;DHT22;5601;44.490;11.400;2022-07-05T16:37:01;34.20;92.30
11095;DHT22;5601;44.490;11.400;2022-07-05T16:39:32;34.10;92.10
11095;DHT22;5601;44.490;11.400;2022-07-05T16:42:00;34.20;92.20
11095;DHT22;5601;44.490;11.400;2022-07-05T16:44:27;34.20;92.20
11095;DHT22;5601;44.490;11.400;2022-07-05T16:46:55;34.20;92.10
11095;DHT22;5601;44.490;11.400;2022-07-05T16:49:22;34.20;91.90
11095;DHT22;5601;44.490;11.400;2022-07-05T16:51:49;34.20;91.90
11095;DHT22;5601;44.490;11.400;2022-07-05T16:54:17;34.10;92.00
11095;DHT22;5601;44.490;11.400;2022-07-05T16:56:46;34.00;92.10
11095;DHT22;5601;44.490;11.400;2022-07-05T16:59:13;33.90;92.00
11095;DHT22;5601;44.490;11.400;2022-07-05T17:01:41;33.90;92.00
11095;DHT22;5601;44.490;11.400;2022-07-05T17:04:08;33.90;92.10
11095;DHT22;5601;44.490;11.400;2022-07-05T17:06:36;33.90;91.70
11095;DHT22;5601;44.490;11.400;2022-07-05T17:09:03;33.90;91.70
11095;DHT22;5601;44.490;11.400;2022-07-05T17:11:31;33.90;91.70
11095;DHT22;5601;44.490;11.400;2022-07-05T17:14:00;33.90;91.80
11095;DHT22;5601;44.490;11.400;2022-07-05T17:16:27;33.90;91.60
11095;DHT22;5601;44.490;11.400;2022-07-05T17:18:56;33.80;91.60
11095;DHT22;5601;44.490;11.400;2022-07-05T21:13:50;28.00;99.90
11095;DHT22;5601;44.490;11.400;2022-07-05T21:16:17;27.90;99.90
11095;DHT22;5601;44.490;11.400;2022-07-05T21:18:45;27.80;99.90
11095;DHT22;5601;44.490;11.400;2022-07-05T21:21:12;27.60;99.90
11095;DHT22;5601;44.490;11.400;2022-07-05T21:23:40;27.60;99.90
11095;DHT22;5601;44.490;11.400;2022-07-05T21:26:07;27.50;99.90
11095;DHT22;5601;44.490;11.400;2022-07-05T21:28:35;27.50;99.90
11095;DHT22;5601;44.490;11.400;2022-07-05T21:31:06;27.40;99.90
11095;DHT22;5601;44.490;11.400;2022-07-05T21:33:33;27.20;99.90
11095;DHT22;5601;44.490;11.400;2022-07-05T21:36:01;27.00;99.90
11095;DHT22;5601;44.490;11.400;2022-07-05T21:38:28;26.90;99.90
11095;DHT22;5601;44.490;11.400;2022-07-05T21:40:56;26.80;99.90
11095;DHT22;5601;44.490;11.400;2022-07-05T21:43:23;26.80;99.90
11095;DHT22;5601;44.490;11.400;2022-07-05T21:45:51;26.80;99.90
11095;DHT22;5601;44.490;11.400;2022-07-05T21:48:20;26.80;99.90